createdAt,value
2022-12-24T00:02:15.593Z,98.89
2022-12-24T00:04:42.108Z,99.36
2022-12-24T00:07:08.578Z,99.92
2022-12-24T00:09:34.964Z,99.22
2022-12-24T00:12:01.341Z,99.29
2022-12-24T00:14:27.762Z,99.01
2022-12-24T00:16:54.232Z,98.97
2022-12-24T00:19:20.673Z,98.67
2022-12-24T00:21:47.050Z,99.00
2022-12-24T00:24:13.579Z,98.84
2022-12-24T00:26:40.055Z,99.25
2022-12-24T00:29:06.637Z,99.09
2022-12-24T00:31:33.096Z,99.35
2022-12-24T00:33:59.548Z,99.37
2022-12-24T00:36:25.942Z,99.64
2022-12-24T00:38:52.318Z,99.87
2022-12-24T00:41:25.308Z,99.89
2022-12-24T00:43:54.006Z,99.62
2022-12-24T00:46:20.838Z,99.86
2022-12-24T00:48:47.864Z,99.58
2022-12-24T00:51:14.635Z,99.71
2022-12-24T00:53:41.157Z,99.49
2022-12-24T00:56:08.293Z,99.16
2022-12-24T00:58:34.785Z,98.97
2022-12-24T01:01:01.372Z,99.26
2022-12-24T01:03:37.180Z,98.12
2022-12-24T01:06:09.737Z,98.90
2022-12-24T01:08:36.642Z,98.91
2022-12-24T01:11:05.829Z,99.00
2022-12-24T01:13:32.992Z,98.66
2022-12-24T01:15:59.437Z,98.73
2022-12-24T01:18:25.884Z,98.14
2022-12-24T01:21:03.396Z,98.37
2022-12-24T01:23:30.616Z,98.48
2022-12-24T01:26:02.023Z,98.66
2022-12-24T01:28:28.810Z,98.68
2022-12-24T01:30:55.306Z,98.64
2022-12-24T01:33:21.782Z,98.51
2022-12-24T01:35:48.436Z,98.35
2022-12-24T01:38:15.267Z,98.63
2022-12-24T01:41:01.404Z,98.66
2022-12-24T01:43:30.287Z,98.60
2022-12-24T01:46:04.591Z,98.79
2022-12-24T01:48:46.352Z,98.89
2022-12-24T01:51:36.821Z,98.61
2022-12-24T01:54:18.064Z,99.03
2022-12-24T01:56:48.909Z,98.84
2022-12-24T01:59:18.585Z,98.91
2022-12-24T02:01:47.148Z,98.83
2022-12-24T02:04:24.997Z,98.84
2022-12-24T02:06:51.419Z,98.77
2022-12-24T02:09:18.103Z,98.67
2022-12-24T02:11:44.912Z,98.99
2022-12-24T02:14:13.244Z,98.85
2022-12-24T02:17:00.444Z,98.94
2022-12-24T02:19:47.385Z,98.65
2022-12-24T02:22:51.589Z,98.54
2022-12-24T02:25:43.117Z,98.94
2022-12-24T02:28:33.910Z,98.67
2022-12-24T02:31:06.285Z,99.02
2022-12-24T02:33:42.790Z,99.17
2022-12-24T02:36:40.269Z,99.09
2022-12-24T02:39:19.204Z,98.87
2022-12-24T02:42:08.628Z,99.00
2022-12-24T02:44:41.991Z,98.73
2022-12-24T02:47:10.676Z,98.38
2022-12-24T02:49:37.976Z,98.37
2022-12-24T02:52:04.650Z,98.34
2022-12-24T02:54:31.381Z,97.84
2022-12-24T02:57:37.297Z,98.00
2022-12-24T03:00:12.313Z,98.09
2022-12-24T03:03:03.230Z,98.12
2022-12-24T03:05:34.019Z,97.89
2022-12-24T03:08:51.156Z,98.03
2022-12-24T03:11:18.458Z,97.87
2022-12-24T03:13:46.909Z,97.99
2022-12-24T03:16:17.534Z,98.06
2022-12-24T03:18:47.810Z,98.09
2022-12-24T03:21:20.845Z,97.64
2022-12-24T03:23:47.891Z,97.99
2022-12-24T03:26:18.121Z,97.99
2022-12-24T03:28:45.567Z,97.50
2022-12-24T03:31:12.979Z,97.42
2022-12-24T03:33:39.545Z,97.61
2022-12-24T03:36:06.714Z,97.34
2022-12-24T03:38:33.722Z,97.53
2022-12-24T03:41:00.373Z,97.66
2022-12-24T03:43:26.769Z,97.47
2022-12-24T03:45:53.202Z,97.26
2022-12-24T03:48:19.673Z,96.79
2022-12-24T03:50:46.099Z,96.91
2022-12-24T03:53:12.490Z,96.95
2022-12-24T03:55:39.542Z,97.46
2022-12-24T03:58:06.186Z,97.04
2022-12-24T04:00:32.596Z,97.39
2022-12-24T04:02:59.015Z,97.19
2022-12-24T04:05:25.426Z,96.72
2022-12-24T04:07:51.828Z,97.12
2022-12-24T04:10:18.309Z,97.15
2022-12-24T04:12:44.740Z,97.12
2022-12-24T04:15:11.568Z,96.79
2022-12-24T04:17:37.944Z,97.23
2022-12-24T04:20:04.840Z,96.84
2022-12-24T04:22:32.503Z,97.08
2022-12-24T04:24:58.906Z,96.69
2022-12-24T04:27:30.091Z,96.98
2022-12-24T04:29:57.328Z,97.08
2022-12-24T04:32:26.315Z,97.50
2022-12-24T04:34:52.784Z,97.49
2022-12-24T04:37:19.153Z,97.50
2022-12-24T04:39:45.518Z,97.40
2022-12-24T04:42:11.905Z,96.84
2022-12-24T04:44:38.287Z,96.27
2022-12-24T04:47:04.764Z,96.21
2022-12-24T04:49:31.161Z,96.69
2022-12-24T04:51:57.524Z,96.51
2022-12-24T04:54:23.881Z,96.64
2022-12-24T04:56:50.245Z,96.30
2022-12-24T04:59:16.652Z,96.35
2022-12-24T05:01:43.145Z,95.69
2022-12-24T05:04:11.132Z,96.07
2022-12-24T05:06:37.655Z,96.01
2022-12-24T05:09:04.080Z,95.99
2022-12-24T05:11:31.270Z,95.76
2022-12-24T05:13:57.638Z,95.57
2022-12-24T05:16:25.129Z,95.98
2022-12-24T05:18:52.683Z,96.27
2022-12-24T05:21:23.767Z,95.53
2022-12-24T05:24:29.117Z,95.38
2022-12-24T05:26:58.666Z,94.53
2022-12-24T05:29:25.174Z,94.77
2022-12-24T05:31:51.553Z,94.44
2022-12-24T05:34:18.003Z,94.17
2022-12-24T05:36:45.363Z,94.18
2022-12-24T05:39:17.158Z,94.86
2022-12-24T05:41:44.239Z,95.17
2022-12-24T05:44:10.657Z,94.93
2022-12-24T05:46:37.139Z,94.47
2022-12-24T05:49:03.732Z,94.20
2022-12-24T05:51:30.139Z,93.96
2022-12-24T05:53:56.648Z,94.25
2022-12-24T05:56:24.617Z,94.49
2022-12-24T05:58:52.121Z,94.60
2022-12-24T06:01:18.771Z,95.02
2022-12-24T06:03:45.249Z,94.94
2022-12-24T06:06:14.664Z,95.21
2022-12-24T06:08:42.425Z,95.67
2022-12-24T06:11:13.076Z,96.52
2022-12-24T06:13:40.763Z,96.86
2022-12-24T06:16:09.188Z,97.81
2022-12-24T06:18:36.435Z,98.10
2022-12-24T06:21:03.886Z,97.89
2022-12-24T06:23:32.747Z,97.42
2022-12-24T06:26:03.205Z,97.14
2022-12-24T06:28:31.838Z,97.49
2022-12-24T06:31:02.656Z,97.72
2022-12-24T06:33:31.323Z,97.12
2022-12-24T06:35:57.790Z,97.06
2022-12-24T06:38:24.186Z,97.03
2022-12-24T06:40:50.584Z,96.92
2022-12-24T06:43:17.337Z,97.13
2022-12-24T06:45:47.799Z,97.26
2022-12-24T06:48:15.344Z,97.39
2022-12-24T06:50:42.368Z,97.56
2022-12-24T06:53:09.576Z,96.37
2022-12-24T06:55:36.032Z,96.48
2022-12-24T06:58:03.333Z,96.33
2022-12-24T07:00:29.879Z,96.83
2022-12-24T07:02:56.438Z,96.72
2022-12-24T07:05:23.038Z,96.51
2022-12-24T07:07:49.471Z,96.87
2022-12-24T07:10:17.473Z,96.82
2022-12-24T07:12:44.231Z,96.99
2022-12-24T07:15:11.830Z,97.14
2022-12-24T07:17:38.536Z,97.34
2022-12-24T07:20:06.228Z,96.97
2022-12-24T07:22:32.790Z,96.14
2022-12-24T07:24:59.418Z,96.40
2022-12-24T07:27:25.837Z,95.51
2022-12-24T07:29:52.296Z,95.89
2022-12-24T07:32:20.432Z,95.82
2022-12-24T07:34:46.836Z,95.80
2022-12-24T07:37:13.195Z,96.11
2022-12-24T07:39:39.556Z,96.61
2022-12-24T07:42:07.921Z,96.81
2022-12-24T07:44:34.631Z,96.90
2022-12-24T07:47:01.104Z,97.06
2022-12-24T07:49:27.536Z,97.47
2022-12-24T07:51:54.283Z,97.57
2022-12-24T07:54:20.888Z,97.36
2022-12-24T07:56:47.252Z,97.55
2022-12-24T07:59:14.470Z,97.55
2022-12-24T08:01:41.597Z,97.64
2022-12-24T08:04:08.311Z,97.29
2022-12-24T08:06:34.790Z,97.63
2022-12-24T08:09:01.188Z,97.62
2022-12-24T08:11:27.865Z,97.43
2022-12-24T08:13:54.516Z,97.52
2022-12-24T08:16:20.990Z,96.69
2022-12-24T08:18:54.239Z,96.83
2022-12-24T08:21:20.830Z,96.47
2022-12-24T08:23:47.487Z,96.87
2022-12-24T08:26:14.045Z,96.31
2022-12-24T08:28:40.737Z,95.96
2022-12-24T08:31:07.250Z,95.83
2022-12-24T08:33:33.714Z,96.25
2022-12-24T08:36:02.036Z,96.51
2022-12-24T08:38:28.850Z,96.12
2022-12-24T08:40:55.530Z,96.07
2022-12-24T08:43:22.716Z,95.97
2022-12-24T08:45:50.032Z,96.57
2022-12-24T08:48:16.677Z,95.67
2022-12-24T08:50:43.370Z,95.99
2022-12-24T08:53:10.614Z,95.82
2022-12-24T08:55:37.989Z,94.89
2022-12-24T08:58:04.389Z,94.96
2022-12-24T09:00:31.199Z,94.50
2022-12-24T09:02:57.906Z,93.55
2022-12-24T09:05:25.884Z,93.82
2022-12-24T09:07:52.296Z,94.04
2022-12-24T09:10:19.564Z,94.51
2022-12-24T09:12:46.289Z,94.69
2022-12-24T09:15:14.102Z,94.53
2022-12-24T09:17:40.694Z,94.28
2022-12-24T09:20:07.781Z,93.54
2022-12-24T09:22:37.091Z,93.80
2022-12-24T09:25:04.676Z,93.89
2022-12-24T09:27:31.649Z,94.32
2022-12-24T09:29:58.046Z,94.64
2022-12-24T09:32:25.605Z,94.02
2022-12-24T09:34:52.008Z,94.35
2022-12-24T09:37:18.470Z,94.62
2022-12-24T09:39:44.874Z,94.25
2022-12-24T09:42:42.734Z,94.49
2022-12-24T09:45:24.415Z,94.50
2022-12-24T09:47:55.443Z,94.85
2022-12-24T09:50:26.998Z,95.34
2022-12-24T09:52:54.285Z,95.82
2022-12-24T09:55:24.345Z,95.85
2022-12-24T09:57:53.007Z,96.82
2022-12-24T10:00:26.893Z,97.18
2022-12-24T10:02:53.434Z,97.57
2022-12-24T10:05:33.387Z,98.39
2022-12-24T10:08:32.999Z,97.88
2022-12-24T10:11:17.380Z,98.67
2022-12-24T10:13:54.380Z,98.37
2022-12-24T10:16:29.833Z,98.72
2022-12-24T10:19:19.548Z,98.98
2022-12-24T10:22:24.821Z,99.09
2022-12-24T10:25:14.706Z,99.12
2022-12-24T10:27:41.095Z,98.60
2022-12-24T10:30:20.108Z,99.01
2022-12-24T10:32:51.848Z,98.86
2022-12-24T10:35:27.579Z,98.92
2022-12-24T10:37:54.075Z,99.02
2022-12-24T10:40:30.496Z,98.57
2022-12-24T10:42:56.912Z,99.02
2022-12-24T10:45:27.257Z,99.02
2022-12-24T10:47:59.809Z,99.00
2022-12-24T10:50:33.840Z,98.93
2022-12-24T10:53:19.946Z,99.12
2022-12-24T10:55:48.499Z,99.08
2022-12-24T10:58:21.090Z,99.55
2022-12-24T11:00:52.650Z,99.47
2022-12-24T11:03:18.968Z,99.37
2022-12-24T11:05:45.490Z,99.07
2022-12-24T11:08:17.741Z,99.44
2022-12-24T11:11:05.986Z,99.41
2022-12-24T11:13:44.052Z,99.79
2022-12-24T11:16:36.180Z,99.39
2022-12-24T11:19:05.410Z,99.77
2022-12-24T11:21:39.347Z,99.44
2022-12-24T11:24:11.965Z,99.50
2022-12-24T11:26:39.983Z,99.09
2022-12-24T11:29:27.389Z,98.82
2022-12-24T11:32:16.534Z,98.75
2022-12-24T11:34:43.572Z,98.68
2022-12-24T11:37:16.273Z,98.69
2022-12-24T11:39:52.977Z,98.84
2022-12-24T11:42:40.698Z,98.01
2022-12-24T11:45:21.068Z,97.27
2022-12-24T11:47:47.453Z,97.20
2022-12-24T11:50:30.171Z,97.22
2022-12-24T11:53:07.906Z,97.59
2022-12-24T11:55:56.667Z,96.69
2022-12-24T11:58:35.960Z,96.39
2022-12-24T12:01:15.737Z,96.42
2022-12-24T12:03:47.105Z,96.33
2022-12-24T12:06:31.408Z,95.98
2022-12-24T12:09:03.025Z,96.39
2022-12-24T12:11:30.993Z,96.29
2022-12-24T12:14:01.102Z,96.11
2022-12-24T12:17:00.868Z,96.04
2022-12-24T12:19:32.656Z,95.96
2022-12-24T12:22:03.261Z,95.63
2022-12-24T12:24:37.173Z,95.60
2022-12-24T12:27:23.962Z,95.43
2022-12-24T12:29:57.955Z,95.79
2022-12-24T12:32:48.983Z,96.59
2022-12-24T12:35:43.269Z,96.82
2022-12-24T12:38:13.833Z,96.52
2022-12-24T12:41:01.360Z,96.88
2022-12-24T12:43:39.993Z,96.19
2022-12-24T12:46:46.817Z,95.76
2022-12-24T12:49:39.597Z,95.42
2022-12-24T12:52:34.180Z,95.64
2022-12-24T12:55:28.031Z,95.92
2022-12-24T12:57:59.755Z,96.24
2022-12-24T13:00:30.329Z,95.63
2022-12-24T13:03:27.799Z,94.55
2022-12-24T13:06:31.976Z,94.68
2022-12-24T13:09:20.651Z,94.85
2022-12-24T13:11:59.596Z,94.32
2022-12-24T13:14:50.909Z,94.63
2022-12-24T13:17:32.451Z,94.30
2022-12-24T13:20:14.691Z,94.57
2022-12-24T13:23:07.715Z,95.27
2022-12-24T13:25:41.390Z,94.92
2022-12-24T13:28:22.964Z,95.47
2022-12-24T13:30:53.457Z,95.83
2022-12-24T13:33:38.190Z,95.98
2022-12-24T13:36:07.780Z,95.65
2022-12-24T13:38:42.823Z,95.24
2022-12-24T13:41:39.575Z,95.77
2022-12-24T13:44:07.384Z,96.03
2022-12-24T13:46:45.887Z,96.05
2022-12-24T13:49:19.019Z,96.34
2022-12-24T13:51:46.413Z,96.10
2022-12-24T13:54:14.832Z,96.35
2022-12-24T13:56:42.150Z,96.09
2022-12-24T13:59:30.602Z,96.09
2022-12-24T14:02:01.312Z,96.17
2022-12-24T14:04:32.185Z,95.66
2022-12-24T14:07:02.503Z,95.58
2022-12-24T14:09:30.486Z,95.32
2022-12-24T14:11:59.868Z,95.99
2022-12-24T14:14:33.687Z,95.59
2022-12-24T14:17:03.497Z,96.34
2022-12-24T14:19:41.046Z,95.97
2022-12-24T14:22:22.724Z,96.48
2022-12-24T14:24:59.365Z,96.79
2022-12-24T14:27:25.813Z,97.04
2022-12-24T14:30:18.687Z,97.14
2022-12-24T14:32:45.579Z,97.19
2022-12-24T14:35:22.053Z,97.42
2022-12-24T14:37:52.472Z,97.45
2022-12-24T14:40:25.511Z,97.48
2022-12-24T14:43:17.805Z,98.40
2022-12-24T14:45:53.095Z,98.49
2022-12-24T14:48:29.556Z,98.63
2022-12-24T14:51:18.757Z,98.65
2022-12-24T14:54:03.795Z,99.04
2022-12-24T14:56:30.251Z,98.67
2022-12-24T14:58:59.050Z,98.79
2022-12-24T15:01:31.659Z,98.86
2022-12-24T15:04:11.249Z,98.87
2022-12-24T15:06:50.447Z,98.70
2022-12-24T15:09:20.404Z,98.92
2022-12-24T15:11:49.713Z,99.07
2022-12-24T15:14:17.755Z,98.57
2022-12-24T15:16:54.499Z,98.92
2022-12-24T15:19:33.280Z,99.11
2022-12-24T15:22:01.312Z,99.15
2022-12-24T15:24:33.733Z,99.09
2022-12-24T15:27:02.998Z,99.19
2022-12-24T15:29:32.286Z,99.56
2022-12-24T15:32:01.228Z,99.42
2022-12-24T15:34:37.842Z,99.64
2022-12-24T15:37:23.641Z,99.31
2022-12-24T15:40:19.645Z,99.70
2022-12-24T15:42:46.286Z,100.00
2022-12-24T15:45:23.159Z,99.87
2022-12-24T15:47:57.521Z,99.71
2022-12-24T15:50:31.222Z,99.92
2022-12-24T15:53:20.326Z,99.78
2022-12-24T15:56:02.531Z,99.64
2022-12-24T15:58:32.056Z,99.42
2022-12-24T16:01:09.144Z,99.50
2022-12-24T16:03:42.045Z,99.43
2022-12-24T16:06:11.643Z,99.47
2022-12-24T16:08:40.050Z,99.17
2022-12-24T16:11:09.631Z,99.64
2022-12-24T16:13:39.992Z,99.37
2022-12-24T16:16:11.383Z,99.22
2022-12-24T16:18:40.274Z,99.02
2022-12-24T16:21:07.685Z,98.82
2022-12-24T16:23:45.640Z,98.95
2022-12-24T16:26:12.055Z,98.96
2022-12-24T16:28:38.476Z,99.25
2022-12-24T16:31:05.097Z,99.19
2022-12-24T16:33:31.630Z,99.39
2022-12-24T16:35:58.404Z,99.20
2022-12-24T16:38:24.898Z,99.38
2022-12-24T16:40:52.113Z,99.22
2022-12-24T16:43:37.293Z,99.44
2022-12-24T16:46:06.938Z,99.33
2022-12-24T16:48:37.592Z,99.25
2022-12-24T16:51:04.096Z,99.20
2022-12-24T16:53:30.571Z,99.31
2022-12-24T16:55:56.983Z,99.37
2022-12-24T16:58:23.449Z,99.33
2022-12-24T17:00:50.000Z,99.42
2022-12-24T17:03:16.658Z,99.69
2022-12-24T17:05:44.524Z,99.61
2022-12-24T17:08:11.683Z,99.57
2022-12-24T17:10:38.129Z,99.25
2022-12-24T17:13:05.306Z,99.37
2022-12-24T17:15:31.900Z,99.66
2022-12-24T17:17:58.385Z,100.00
2022-12-24T17:20:24.926Z,100.00
2022-12-24T17:22:51.685Z,100.00
2022-12-24T17:25:18.311Z,100.00
2022-12-24T17:27:44.838Z,100.00
2022-12-24T17:30:11.529Z,100.00
2022-12-24T17:32:39.575Z,100.00
2022-12-24T17:35:06.980Z,100.00
2022-12-24T17:37:33.392Z,100.00
2022-12-24T17:39:59.868Z,100.00
2022-12-24T17:42:26.218Z,100.00
2022-12-24T17:44:52.611Z,100.00
2022-12-24T17:47:18.970Z,100.00
2022-12-24T17:49:45.363Z,100.00
2022-12-24T17:52:12.119Z,100.00
2022-12-24T17:54:38.590Z,100.00
2022-12-24T17:57:05.140Z,100.00
2022-12-24T17:59:31.935Z,100.00
2022-12-24T18:01:58.569Z,100.00
2022-12-24T18:04:25.111Z,100.00
2022-12-24T18:06:56.256Z,100.00
2022-12-24T18:09:28.067Z,100.00
2022-12-24T18:11:54.620Z,100.00
2022-12-24T18:14:21.031Z,100.00
2022-12-24T18:16:48.340Z,100.00
2022-12-24T18:19:14.777Z,100.00
2022-12-24T18:21:41.264Z,100.00
2022-12-24T18:24:08.978Z,100.00
2022-12-24T18:26:35.615Z,100.00
2022-12-24T18:29:04.480Z,100.00
2022-12-24T18:31:33.386Z,100.00
2022-12-24T18:34:01.895Z,100.00
2022-12-24T18:36:28.358Z,100.00
2022-12-24T18:38:54.816Z,100.00
2022-12-24T18:41:27.296Z,100.00
2022-12-24T18:43:54.435Z,100.00
2022-12-24T18:46:23.745Z,100.00
2022-12-24T18:48:51.303Z,100.00
2022-12-24T18:51:19.792Z,100.00
2022-12-24T18:53:46.150Z,100.00
2022-12-24T18:56:14.235Z,100.00
2022-12-24T18:58:42.205Z,100.00
2022-12-24T19:01:13.115Z,100.00
2022-12-24T19:03:39.617Z,100.00
2022-12-24T19:06:06.517Z,100.00
2022-12-24T19:11:19.408Z,100.00
2022-12-24T19:13:49.730Z,100.00
2022-12-24T19:16:16.998Z,100.00
2022-12-24T19:18:43.459Z,100.00
2022-12-24T19:21:12.236Z,100.00
2022-12-24T19:23:38.695Z,100.00
2022-12-24T19:26:05.776Z,100.00
2022-12-24T19:28:32.878Z,100.00
2022-12-24T19:31:07.979Z,100.00
2022-12-24T19:33:43.518Z,100.00
2022-12-24T19:36:13.469Z,100.00
2022-12-24T19:38:40.312Z,100.00
2022-12-24T19:41:07.711Z,100.00
2022-12-24T19:43:37.570Z,100.00
2022-12-24T19:46:04.244Z,100.00
2022-12-24T19:48:30.961Z,100.00
2022-12-24T19:51:02.101Z,100.00
2022-12-24T19:53:28.824Z,100.00
2022-12-24T19:55:55.227Z,100.00
2022-12-24T19:58:21.670Z,100.00
2022-12-24T20:00:48.716Z,100.00
2022-12-24T20:03:15.208Z,100.00
2022-12-24T20:05:42.454Z,100.00
2022-12-24T20:08:09.113Z,100.00
2022-12-24T20:10:43.598Z,100.00
2022-12-24T20:13:10.940Z,100.00
2022-12-24T20:15:44.735Z,100.00
2022-12-24T20:18:13.087Z,100.00
2022-12-24T20:20:40.409Z,100.00
2022-12-24T20:23:07.960Z,100.00
2022-12-24T20:25:36.110Z,100.00
2022-12-24T20:28:03.446Z,100.00
2022-12-24T20:30:29.869Z,100.00
2022-12-24T20:32:57.381Z,100.00
2022-12-24T20:35:24.611Z,100.00
2022-12-24T20:37:51.070Z,100.00
2022-12-24T20:40:17.599Z,100.00
2022-12-24T20:42:44.144Z,100.00
2022-12-24T20:45:10.719Z,100.00
2022-12-24T20:47:37.088Z,100.00
2022-12-24T20:50:03.785Z,100.00
2022-12-24T20:52:30.208Z,100.00
2022-12-24T20:54:56.590Z,100.00
2022-12-24T20:57:26.761Z,100.00
2022-12-24T20:59:55.223Z,100.00
2022-12-24T21:02:21.738Z,100.00
2022-12-24T21:04:48.437Z,100.00
2022-12-24T21:07:14.913Z,100.00
2022-12-24T21:09:41.706Z,100.00
2022-12-24T21:12:29.774Z,100.00
2022-12-24T21:14:56.490Z,100.00
2022-12-24T21:17:23.131Z,100.00
2022-12-24T21:19:49.688Z,100.00
2022-12-24T21:22:16.115Z,100.00
2022-12-24T21:24:42.563Z,100.00
2022-12-24T21:27:08.966Z,100.00
2022-12-24T21:29:35.331Z,100.00
2022-12-24T21:32:01.701Z,99.90
2022-12-24T21:34:28.462Z,99.99
2022-12-24T21:36:54.872Z,100.00
2022-12-24T21:39:21.299Z,100.00
2022-12-24T21:41:47.733Z,100.00
2022-12-24T21:44:14.306Z,99.49
2022-12-24T21:46:40.710Z,99.93
2022-12-24T21:49:28.298Z,99.87
2022-12-24T21:51:54.688Z,99.62
2022-12-24T21:54:24.105Z,99.51
2022-12-24T21:57:10.782Z,99.37
2022-12-24T21:59:37.155Z,99.89
2022-12-24T22:02:03.853Z,100.00
2022-12-24T22:04:31.718Z,99.92
2022-12-24T22:07:16.647Z,99.85
2022-12-24T22:10:01.602Z,99.89
2022-12-24T22:12:32.447Z,99.76
2022-12-24T22:14:59.158Z,99.69
2022-12-24T22:17:26.806Z,99.45
2022-12-24T22:19:55.541Z,99.18
2022-12-24T22:22:22.980Z,99.80
2022-12-24T22:24:49.508Z,99.54
2022-12-24T22:27:16.088Z,99.36
2022-12-24T22:29:42.451Z,98.92
2022-12-24T22:32:08.811Z,98.72
2022-12-24T22:34:36.598Z,98.45
2022-12-24T22:37:03.012Z,98.22
2022-12-24T22:39:29.372Z,98.04
2022-12-24T22:41:57.925Z,98.28
2022-12-24T22:44:24.785Z,98.50
2022-12-24T22:46:51.171Z,98.29
2022-12-24T22:49:17.627Z,97.77
2022-12-24T22:51:44.030Z,98.39
2022-12-24T22:54:10.466Z,98.39
2022-12-24T22:56:40.944Z,98.68
2022-12-24T22:59:07.968Z,99.22
2022-12-24T23:01:36.919Z,98.90
2022-12-24T23:04:04.748Z,98.41
2022-12-24T23:06:32.995Z,98.29
2022-12-24T23:08:59.782Z,98.35
2022-12-24T23:11:26.247Z,98.41
2022-12-24T23:14:11.274Z,97.82
2022-12-24T23:16:37.654Z,97.69
2022-12-24T23:19:05.639Z,97.75
2022-12-24T23:21:32.869Z,97.85
2022-12-24T23:24:01.135Z,97.49
2022-12-24T23:26:29.007Z,97.56
2022-12-24T23:28:56.583Z,97.48
2022-12-24T23:31:24.318Z,97.08
2022-12-24T23:33:50.816Z,96.92
2022-12-24T23:36:17.719Z,96.70
2022-12-24T23:38:44.096Z,96.67
2022-12-24T23:41:10.973Z,96.86
2022-12-24T23:43:38.184Z,97.11
2022-12-24T23:46:04.953Z,97.37
2022-12-24T23:48:31.358Z,97.70
2022-12-24T23:51:16.289Z,97.76
2022-12-24T23:53:43.056Z,97.88
2022-12-24T23:56:11.494Z,98.03
2022-12-24T23:58:39.403Z,98.45
